Time;durP1;ratioP1;P1;durP2;ratioP2;P2;SDS_P1;SDS_P2;PMS_P1;PMS_P2;Temp;Humidity;BMP_temperature;BMP_pressure;BME280_temperature;BME280_humidity;BME280_pressure;Samples;Min_cycle;Max_cycle;Signal;HPM_P1;HPM_P2
2024/04/18 00:00:48;;;;;;;1999.90;999.90;;;;;;;;;;5427978;26;20326;-80
2024/04/18 00:03:16;;;;;;;1999.90;999.90;;;;;;;;;;5421925;26;20009;-80
2024/04/18 00:05:44;;;;;;;1999.90;999.90;;;;;;;;;;5424113;26;20021;-80
2024/04/18 00:08:10;;;;;;;1999.90;999.90;;;;;;;;;;5429526;26;20029;-80
2024/04/18 00:10:40;;;;;;;1999.90;999.90;;;;;;;;;;5424905;26;20461;-80
2024/04/18 00:13:05;;;;;;;1999.90;999.90;;;;;;;;;;5426317;26;20010;-82
2024/04/18 00:15:33;;;;;;;1999.90;999.90;;;;;;;;;;5424233;26;20356;-81
2024/04/18 00:17:59;;;;;;;1999.90;999.90;;;;;;;;;;5428785;26;20018;-81
2024/04/18 00:20:30;;;;;;;1999.90;999.90;;;;;;;;;;5426139;26;20011;-81
2024/04/18 00:22:55;;;;;;;1999.90;999.90;;;;;;;;;;5429828;26;20043;-81
2024/04/18 00:25:24;;;;;;;1999.90;999.90;;;;;;;;;;5424036;26;20651;-81
2024/04/18 00:27:49;;;;;;;1999.90;999.90;;;;;;;;;;5419260;26;20094;-82
2024/04/18 00:30:18;;;;;;;1999.90;999.90;;;;;;;;;;5434629;26;20453;-82
2024/04/18 00:32:43;;;;;;;1999.90;999.90;;;;;;;;;;5424152;26;20121;-80
2024/04/18 00:35:11;;;;;;;1999.90;999.90;;;;;;;;;;5429581;26;20011;-81
2024/04/18 00:37:39;;;;;;;1999.90;999.90;;;;;;;;;;5439723;26;20116;-81
2024/04/18 00:40:09;;;;;;;1999.90;999.90;;;;;;;;;;5432590;26;20011;-81
2024/04/18 00:42:34;;;;;;;1999.90;999.90;;;;;;;;;;5424446;26;20080;-82
2024/04/18 00:45:03;;;;;;;1999.90;999.90;;;;;;;;;;5421734;26;20414;-81
2024/04/18 00:47:28;;;;;;;1999.90;999.90;;;;;;;;;;5426657;26;20023;-77
2024/04/18 00:49:57;;;;;;;1999.90;999.90;;;;;;;;;;5428173;26;20003;-77
2024/04/18 00:52:22;;;;;;;1999.90;999.90;;;;;;;;;;5421879;26;20010;-77
2024/04/18 00:54:53;;;;;;;1999.90;999.90;;;;;;;;;;5419762;26;19999;-77
2024/04/18 00:57:19;;;;;;;1999.90;999.90;;;;;;;;;;5420549;26;20076;-80
2024/04/18 00:59:50;;;;;;;1999.90;999.90;;;;;;;;;;5427252;26;20007;-81
2024/04/18 01:02:23;;;;;;;1999.90;999.90;;;;;;;;;;5437061;26;20457;-80
2024/04/18 01:04:52;;;;;;;1999.90;999.90;;;;;;;;;;5427102;26;20016;-81
2024/04/18 01:07:17;;;;;;;1999.90;999.90;;;;;;;;;;5422944;26;20090;-81
2024/04/18 01:09:46;;;;;;;1999.90;999.90;;;;;;;;;;5422364;26;20012;-81
2024/04/18 01:12:14;;;;;;;1999.90;999.90;;;;;;;;;;5423485;26;20007;-81
2024/04/18 01:14:43;;;;;;;1999.90;999.90;;;;;;;;;;5430198;26;20013;-82
2024/04/18 01:17:10;;;;;;;1999.90;999.90;;;;;;;;;;5425032;26;20497;-82
2024/04/18 01:19:39;;;;;;;1999.90;999.90;;;;;;;;;;5424663;26;20088;-81
2024/04/18 01:22:04;;;;;;;1999.90;999.90;;;;;;;;;;5425460;26;20116;-82
2024/04/18 01:24:33;;;;;;;1999.90;999.90;;;;;;;;;;5434880;26;20015;-82
2024/04/18 01:27:02;;;;;;;1999.90;999.90;;;;;;;;;;5431373;26;20014;-83
2024/04/18 01:29:30;;;;;;;1999.90;999.90;;;;;;;;;;5431658;26;19999;-82
2024/04/18 01:31:56;;;;;;;1999.90;999.90;;;;;;;;;;5425926;26;20066;-82
2024/04/18 01:34:24;;;;;;;1999.90;999.90;;;;;;;;;;5431278;26;20081;-83
2024/04/18 01:36:51;;;;;;;1999.90;999.90;;;;;;;;;;5431243;26;20497;-83
2024/04/18 01:39:19;;;;;;;1999.90;999.90;;;;;;;;;;5424564;26;20018;-81
2024/04/18 01:41:45;;;;;;;1999.90;999.90;;;;;;;;;;5430142;26;20042;-83
2024/04/18 01:44:16;;;;;;;1999.90;999.90;;;;;;;;;;5434399;26;20628;-81
2024/04/18 01:46:41;;;;;;;1999.90;999.90;;;;;;;;;;5424704;26;20101;-83
2024/04/18 01:49:09;;;;;;;1999.90;999.90;;;;;;;;;;5435672;26;20739;-82
2024/04/18 01:51:35;;;;;;;1999.90;999.90;;;;;;;;;;5429902;26;20018;-82
2024/04/18 01:54:03;;;;;;;1999.90;999.90;;;;;;;;;;5431349;26;20033;-82
2024/04/18 01:56:29;;;;;;;1999.90;999.90;;;;;;;;;;5428543;26;19999;-77
2024/04/18 01:59:03;;;;;;;1999.90;999.90;;;;;;;;;;5423443;26;20018;-77
2024/04/18 02:01:38;;;;;;;1999.90;999.90;;;;;;;;;;5425749;26;19999;-77
2024/04/18 02:04:07;;;;;;;1999.90;999.90;;;;;;;;;;5425969;26;20077;-77
2024/04/18 02:06:32;;;;;;;1999.90;999.90;;;;;;;;;;5426181;26;20456;-77
2024/04/18 02:09:01;;;;;;;1999.90;999.90;;;;;;;;;;5427323;26;20035;-77
2024/04/18 02:11:26;;;;;;;1999.90;999.90;;;;;;;;;;5426854;26;20002;-77
2024/04/18 02:13:55;;;;;;;1999.90;999.90;;;;;;;;;;5432094;26;20003;-77
2024/04/18 02:16:20;;;;;;;1999.90;999.90;;;;;;;;;;5426129;26;20054;-77
2024/04/18 02:18:51;;;;;;;1999.90;999.90;;;;;;;;;;5431965;26;20007;-77
2024/04/18 02:21:17;;;;;;;1999.90;999.90;;;;;;;;;;5426158;26;19999;-77
2024/04/18 02:23:45;;;;;;;1999.90;999.90;;;;;;;;;;5426975;26;20019;-77
2024/04/18 02:26:10;;;;;;;1999.90;999.90;;;;;;;;;;5422726;26;20019;-77
2024/04/18 02:28:39;;;;;;;1999.90;999.90;;;;;;;;;;5432147;26;20357;-77
2024/04/18 02:31:04;;;;;;;1999.90;999.90;;;;;;;;;;5432652;26;20004;-77
2024/04/18 02:33:34;;;;;;;1999.90;999.90;;;;;;;;;;5430933;26;19998;-77
2024/04/18 02:36:03;;;;;;;1999.90;999.90;;;;;;;;;;5433164;26;20057;-77
2024/04/18 02:38:31;;;;;;;1999.90;999.90;;;;;;;;;;5428659;26;20503;-77
2024/04/18 02:41:01;;;;;;;1999.90;999.90;;;;;;;;;;5424377;26;20003;-77
2024/04/18 02:43:29;;;;;;;1999.90;999.90;;;;;;;;;;5428647;26;20004;-78
2024/04/18 02:45:55;;;;;;;1999.90;999.90;;;;;;;;;;5423913;26;20042;-78
2024/04/18 02:48:23;;;;;;;1999.90;999.90;;;;;;;;;;5424523;26;20015;-77
2024/04/18 02:50:49;;;;;;;1999.90;999.90;;;;;;;;;;5426601;26;19996;-77
2024/04/18 02:53:20;;;;;;;1999.90;999.90;;;;;;;;;;5423478;26;20073;-77
2024/04/18 02:55:46;;;;;;;1999.90;999.90;;;;;;;;;;5420671;26;20007;-78
2024/04/18 02:58:14;;;;;;;1999.90;999.90;;;;;;;;;;5427416;26;20736;-77
2024/04/18 03:00:40;;;;;;;1999.90;999.90;;;;;;;;;;5426640;26;20489;-77
2024/04/18 03:03:08;;;;;;;1999.90;999.90;;;;;;;;;;5428924;26;20100;-78
2024/04/18 03:05:34;;;;;;;1999.90;999.90;;;;;;;;;;5429286;26;20576;-77
2024/04/18 03:08:02;;;;;;;1999.90;999.90;;;;;;;;;;5424064;26;20014;-83
2024/04/18 03:10:30;;;;;;;1999.90;999.90;;;;;;;;;;5430310;26;20040;-83
2024/04/18 03:12:58;;;;;;;1999.90;999.90;;;;;;;;;;5423602;26;20003;-83
2024/04/18 03:15:24;;;;;;;1999.90;999.90;;;;;;;;;;5434041;26;20031;-84
2024/04/18 03:17:53;;;;;;;1999.90;999.90;;;;;;;;;;5427019;26;20087;-83
2024/04/18 03:20:19;;;;;;;1999.90;999.90;;;;;;;;;;5427835;26;20000;-84
2024/04/18 03:22:48;;;;;;;1999.90;999.90;;;;;;;;;;5423725;26;20386;-82
2024/04/18 03:25:13;;;;;;;1999.90;999.90;;;;;;;;;;5428017;26;20000;-82
2024/04/18 03:27:44;;;;;;;1999.90;999.90;;;;;;;;;;5431480;26;20838;-82
2024/04/18 03:30:10;;;;;;;1999.90;999.90;;;;;;;;;;5419701;26;20008;-82
2024/04/18 03:32:40;;;;;;;1999.90;999.90;;;;;;;;;;5432101;26;20013;-83
2024/04/18 03:35:06;;;;;;;1999.90;999.90;;;;;;;;;;5433940;26;20011;-83
2024/04/18 03:37:34;;;;;;;1999.90;999.90;;;;;;;;;;5427933;26;20018;-83
2024/04/18 03:40:03;;;;;;;1999.90;999.90;;;;;;;;;;5420662;26;20481;-84
2024/04/18 03:42:31;;;;;;;1999.90;999.90;;;;;;;;;;5424873;26;20354;-83
2024/04/18 03:45:02;;;;;;;1999.90;999.90;;;;;;;;;;5437171;26;19999;-84
2024/04/18 03:47:30;;;;;;;1999.90;999.90;;;;;;;;;;5420250;26;19996;-82
2024/04/18 03:49:55;;;;;;;1999.90;999.90;;;;;;;;;;5433271;26;20010;-83
2024/04/18 03:52:24;;;;;;;1999.90;999.90;;;;;;;;;;5429477;26;20017;-82
2024/04/18 03:54:49;;;;;;;1999.90;999.90;;;;;;;;;;5429780;26;20003;-82
2024/04/18 03:57:17;;;;;;;1999.90;999.90;;;;;;;;;;5427752;26;20363;-78
2024/04/18 03:59:43;;;;;;;1999.90;999.90;;;;;;;;;;5423427;26;20500;-78
2024/04/18 04:02:14;;;;;;;1999.90;999.90;;;;;;;;;;5427172;26;20072;-77
2024/04/18 04:04:40;;;;;;;1999.90;999.90;;;;;;;;;;5426075;26;20039;-78
2024/04/18 04:07:08;;;;;;;1999.90;999.90;;;;;;;;;;5428558;26;20068;-78
2024/04/18 04:09:35;;;;;;;1999.90;999.90;;;;;;;;;;5420698;26;20015;-77
2024/04/18 04:12:04;;;;;;;1999.90;999.90;;;;;;;;;;5431246;26;20004;-77
2024/04/18 04:14:29;;;;;;;1999.90;999.90;;;;;;;;;;5431943;26;19995;-77
2024/04/18 04:16:57;;;;;;;1999.90;999.90;;;;;;;;;;5428848;26;20003;-77
2024/04/18 04:19:26;;;;;;;1999.90;999.90;;;;;;;;;;5430680;26;20050;-78
2024/04/18 04:21:54;;;;;;;1999.90;999.90;;;;;;;;;;5421960;26;20003;-78
2024/04/18 04:24:19;;;;;;;1999.90;999.90;;;;;;;;;;5424049;26;20039;-78
2024/04/18 04:26:48;;;;;;;1999.90;999.90;;;;;;;;;;5420830;26;20002;-78
2024/04/18 04:29:14;;;;;;;1999.90;999.90;;;;;;;;;;5422799;26;20014;-78
2024/04/18 04:31:47;;;;;;;1999.90;999.90;;;;;;;;;;5427367;26;20083;-79
2024/04/18 04:34:12;;;;;;;1999.90;999.90;;;;;;;;;;5420792;26;19999;-78
2024/04/18 04:36:43;;;;;;;1999.90;999.90;;;;;;;;;;5424924;26;19995;-77
2024/04/18 04:39:09;;;;;;;1999.90;999.90;;;;;;;;;;5420880;26;20004;-77
2024/04/18 04:41:37;;;;;;;1999.90;999.90;;;;;;;;;;5426227;26;20384;-77
2024/04/18 04:44:03;;;;;;;1999.90;999.90;;;;;;;;;;5424871;26;20093;-78
2024/04/18 04:46:31;;;;;;;1999.90;999.90;;;;;;;;;;5421962;26;20003;-79
2024/04/18 04:48:57;;;;;;;1999.90;999.90;;;;;;;;;;5430034;26;20094;-79
2024/04/18 04:51:25;;;;;;;1999.90;999.90;;;;;;;;;;5428025;26;20392;-79
2024/04/18 04:53:53;;;;;;;1999.90;999.90;;;;;;;;;;5429255;26;20003;-79
2024/04/18 04:56:22;;;;;;;1999.90;999.90;;;;;;;;;;5428186;26;20007;-79
2024/04/18 04:58:47;;;;;;;1999.90;999.90;;;;;;;;;;5428190;26;20075;-79
2024/04/18 05:01:16;;;;;;;1999.90;999.90;;;;;;;;;;5422421;26;20011;-78
2024/04/18 05:03:42;;;;;;;1999.90;999.90;;;;;;;;;;5430124;26;20031;-79
2024/04/18 05:06:10;;;;;;;1999.90;999.90;;;;;;;;;;5422908;26;20008;-81
2024/04/18 05:08:35;;;;;;;1999.90;999.90;;;;;;;;;;5420109;26;20088;-81
2024/04/18 05:11:06;;;;;;;1999.90;999.90;;;;;;;;;;5423763;26;20022;-80
2024/04/18 05:13:32;;;;;;;1999.90;999.90;;;;;;;;;;5436494;26;20010;-81
2024/04/18 05:16:00;;;;;;;1999.90;999.90;;;;;;;;;;5418455;26;20004;-82
2024/04/18 05:18:26;;;;;;;1999.90;999.90;;;;;;;;;;5425352;26;20013;-81
2024/04/18 05:20:54;;;;;;;1999.90;999.90;;;;;;;;;;5419922;26;20476;-80
2024/04/18 05:23:19;;;;;;;1999.90;999.90;;;;;;;;;;5428659;26;20015;-82
2024/04/18 05:25:48;;;;;;;1999.90;999.90;;;;;;;;;;5428415;26;20005;-83
2024/04/18 05:28:20;;;;;;;1999.90;999.90;;;;;;;;;;5423927;26;20035;-79
2024/04/18 05:31:04;;;;;;;1999.90;999.90;;;;;;;;;;5423233;26;20003;-79
2024/04/18 05:33:31;;;;;;;1999.90;999.90;;;;;;;;;;5426062;26;20011;-79
2024/04/18 05:35:59;;;;;;;1999.90;999.90;;;;;;;;;;5433527;26;20017;-79
2024/04/18 05:38:28;;;;;;;1999.90;999.90;;;;;;;;;;5423010;26;20011;-79
2024/04/18 05:40:56;;;;;;;1999.90;999.90;;;;;;;;;;5430206;26;20083;-79
2024/04/18 05:43:27;;;;;;;1999.90;999.90;;;;;;;;;;5421960;26;20070;-80
2024/04/18 05:45:55;;;;;;;1999.90;999.90;;;;;;;;;;5427356;26;20026;-79
2024/04/18 05:48:23;;;;;;;1999.90;999.90;;;;;;;;;;5426945;26;20465;-79
2024/04/18 05:50:52;;;;;;;1999.90;999.90;;;;;;;;;;5415249;26;20464;-79
2024/04/18 05:53:20;;;;;;;1999.90;999.90;;;;;;;;;;5430749;26;20093;-79
2024/04/18 05:55:48;;;;;;;1999.90;999.90;;;;;;;;;;5421119;26;20007;-79
2024/04/18 05:58:17;;;;;;;1999.90;999.90;;;;;;;;;;5421596;26;20011;-80
2024/04/18 06:00:49;;;;;;;1999.90;999.90;;;;;;;;;;5424071;26;20006;-79
2024/04/18 06:03:18;;;;;;;1999.90;999.90;;;;;;;;;;5428494;26;20000;-79
2024/04/18 06:05:46;;;;;;;1999.90;999.90;;;;;;;;;;5431694;26;20003;-80
2024/04/18 06:08:14;;;;;;;1999.90;999.90;;;;;;;;;;5431217;26;20018;-80
2024/04/18 06:10:43;;;;;;;1999.90;999.90;;;;;;;;;;5427499;26;20035;-79
2024/04/18 06:13:12;;;;;;;1999.90;999.90;;;;;;;;;;5430983;26;20015;-79
2024/04/18 06:15:43;;;;;;;1999.90;999.90;;;;;;;;;;5428944;26;20502;-79
2024/04/18 06:18:14;;;;;;;1999.90;999.90;;;;;;;;;;5425624;26;20007;-83
2024/04/18 06:20:44;;;;;;;1999.90;999.90;;;;;;;;;;5428845;26;20004;-82
2024/04/18 06:23:12;;;;;;;1999.90;999.90;;;;;;;;;;5427062;26;19999;-82
2024/04/18 06:25:41;;;;;;;1999.90;999.90;;;;;;;;;;5428476;26;20081;-81
2024/04/18 06:28:10;;;;;;;1999.90;999.90;;;;;;;;;;5433282;26;20595;-82
2024/04/18 06:30:39;;;;;;;1999.90;999.90;;;;;;;;;;5437610;26;19999;-83
2024/04/18 06:33:07;;;;;;;1999.90;999.90;;;;;;;;;;5427219;26;20019;-82
2024/04/18 06:35:38;;;;;;;1999.90;999.90;;;;;;;;;;5427760;26;20015;-82
2024/04/18 06:38:08;;;;;;;1999.90;999.90;;;;;;;;;;5424541;26;20015;-81
2024/04/18 06:40:36;;;;;;;1999.90;999.90;;;;;;;;;;5426081;26;20023;-82
2024/04/18 06:43:04;;;;;;;1999.90;999.90;;;;;;;;;;5429737;26;19995;-83
2024/04/18 06:45:34;;;;;;;1999.90;999.90;;;;;;;;;;5421678;26;20004;-83
2024/04/18 06:48:02;;;;;;;1999.90;999.90;;;;;;;;;;5431046;26;20018;-81
2024/04/18 06:50:30;;;;;;;1999.90;999.90;;;;;;;;;;5428190;26;19995;-82
2024/04/18 06:53:01;;;;;;;1999.90;999.90;;;;;;;;;;5424939;26;20085;-82
2024/04/18 06:55:29;;;;;;;1999.90;999.90;;;;;;;;;;5428716;26;20579;-81
2024/04/18 06:57:58;;;;;;;1999.90;999.90;;;;;;;;;;5425031;26;20339;-81
2024/04/18 07:00:27;;;;;;;1999.90;999.90;;;;;;;;;;5428830;26;20450;-82
2024/04/18 07:02:55;;;;;;;1999.90;999.90;;;;;;;;;;5425020;26;20015;-82
2024/04/18 07:05:23;;;;;;;1999.90;999.90;;;;;;;;;;5429515;26;20416;-82
2024/04/18 07:07:54;;;;;;;1999.90;999.90;;;;;;;;;;5429331;26;20068;-82
2024/04/18 07:10:25;;;;;;;1999.90;999.90;;;;;;;;;;5431399;26;20019;-82
2024/04/18 07:12:53;;;;;;;1999.90;999.90;;;;;;;;;;5432054;26;20083;-83
2024/04/18 07:15:21;;;;;;;1999.90;999.90;;;;;;;;;;5421969;26;20044;-82
2024/04/18 07:17:53;;;;;;;1999.90;999.90;;;;;;;;;;5431634;26;20011;-82
2024/04/18 07:20:21;;;;;;;1999.90;999.90;;;;;;;;;;5429327;26;20014;-82
2024/04/18 07:22:49;;;;;;;1999.90;999.90;;;;;;;;;;5424059;26;20580;-82
2024/04/18 07:25:18;;;;;;;1999.90;999.90;;;;;;;;;;5426149;26;20086;-82
2024/04/18 07:27:49;;;;;;;1999.90;999.90;;;;;;;;;;5427052;26;20018;-79
2024/04/18 07:30:18;;;;;;;1999.90;999.90;;;;;;;;;;5428567;26;20043;-79
2024/04/18 07:32:46;;;;;;;1999.90;999.90;;;;;;;;;;5425481;26;20031;-79
2024/04/18 07:35:14;;;;;;;1999.90;999.90;;;;;;;;;;5428005;26;20468;-80
2024/04/18 07:37:42;;;;;;;1999.90;999.90;;;;;;;;;;5422626;26;20004;-80
2024/04/18 07:40:15;;;;;;;1999.90;999.90;;;;;;;;;;5429717;26;20164;-81
2024/04/18 07:42:43;;;;;;;1999.90;999.90;;;;;;;;;;5427920;26;20014;-79
2024/04/18 07:45:14;;;;;;;1999.90;999.90;;;;;;;;;;5427150;26;20015;-80
2024/04/18 07:47:42;;;;;;;1999.90;999.90;;;;;;;;;;5424624;26;20008;-83
2024/04/18 07:50:11;;;;;;;1999.90;999.90;;;;;;;;;;5424253;26;20007;-83
2024/04/18 07:52:40;;;;;;;1999.90;999.90;;;;;;;;;;5433301;26;20554;-83
2024/04/18 07:55:08;;;;;;;1999.90;999.90;;;;;;;;;;5426743;26;20004;-83
2024/04/18 07:57:37;;;;;;;1999.90;999.90;;;;;;;;;;5423778;26;20761;-82
2024/04/18 08:00:06;;;;;;;1999.90;999.90;;;;;;;;;;5425155;26;20004;-83
2024/04/18 08:02:37;;;;;;;1999.90;999.90;;;;;;;;;;5425623;26;20352;-81
2024/04/18 08:05:05;;;;;;;1999.90;999.90;;;;;;;;;;5433978;26;19999;-83
2024/04/18 08:07:33;;;;;;;1999.90;999.90;;;;;;;;;;5421960;26;20018;-82
2024/04/18 08:10:02;;;;;;;1999.90;999.90;;;;;;;;;;5429869;26;20084;-81
2024/04/18 08:12:30;;;;;;;1999.90;999.90;;;;;;;;;;5424577;26;20030;-82
2024/04/18 08:14:58;;;;;;;1999.90;999.90;;;;;;;;;;5425322;26;20022;-82
2024/04/18 08:17:26;;;;;;;1999.90;999.90;;;;;;;;;;5427494;26;20021;-82
2024/04/18 08:19:57;;;;;;;1999.90;999.90;;;;;;;;;;5423214;26;20143;-81
2024/04/18 08:22:26;;;;;;;1999.90;999.90;;;;;;;;;;5423812;26;20094;-80
2024/04/18 08:24:54;;;;;;;1999.90;999.90;;;;;;;;;;5424812;26;20021;-82
2024/04/18 08:27:22;;;;;;;1999.90;999.90;;;;;;;;;;5429707;26;20455;-80
2024/04/18 08:29:51;;;;;;;1999.90;999.90;;;;;;;;;;5424127;26;20076;-81
2024/04/18 08:32:22;;;;;;;1999.90;999.90;;;;;;;;;;5427080;26;20015;-80
2024/04/18 08:34:51;;;;;;;1999.90;999.90;;;;;;;;;;5420199;26;20023;-81
2024/04/18 08:37:21;;;;;;;1999.90;999.90;;;;;;;;;;5427980;26;20036;-81
2024/04/18 08:39:50;;;;;;;1999.90;999.90;;;;;;;;;;5424496;26;20043;-80
2024/04/18 08:42:25;;;;;;;1999.90;999.90;;;;;;;;;;5433541;26;20004;-80
2024/04/18 08:44:55;;;;;;;1999.90;999.90;;;;;;;;;;5425259;26;20526;-80
2024/04/18 08:47:26;;;;;;;1999.90;999.90;;;;;;;;;;5424814;26;20000;-80
2024/04/18 08:49:56;;;;;;;1999.90;999.90;;;;;;;;;;5425251;26;20015;-81
2024/04/18 08:52:28;;;;;;;1999.90;999.90;;;;;;;;;;5431045;26;20003;-79
2024/04/18 08:54:56;;;;;;;1999.90;999.90;;;;;;;;;;5421870;26;20007;-81
2024/04/18 08:57:27;;;;;;;1999.90;999.90;;;;;;;;;;5427831;26;20355;-80
2024/04/18 09:00:01;;;;;;;1999.90;999.90;;;;;;;;;;5422692;26;20012;-81
2024/04/18 09:02:29;;;;;;;1999.90;999.90;;;;;;;;;;5433957;26;19996;-80
2024/04/18 09:05:00;;;;;;;1999.90;999.90;;;;;;;;;;5431709;26;20097;-80
2024/04/18 09:07:31;;;;;;;1999.90;999.90;;;;;;;;;;5419110;26;20008;-80
2024/04/18 09:10:07;;;;;;;1999.90;999.90;;;;;;;;;;5426363;26;20014;-80
2024/04/18 09:12:35;;;;;;;1999.90;999.90;;;;;;;;;;5421972;26;20014;-82
2024/04/18 09:15:04;;;;;;;1999.90;999.90;;;;;;;;;;5423022;26;20098;-80
2024/04/18 09:17:32;;;;;;;1999.90;999.90;;;;;;;;;;5420566;26;20102;-79
2024/04/18 09:20:00;;;;;;;1999.90;999.90;;;;;;;;;;5425464;26;20000;-80
2024/04/18 09:22:31;;;;;;;1999.90;999.90;;;;;;;;;;5431461;26;19998;-80
2024/04/18 09:24:59;;;;;;;1999.90;999.90;;;;;;;;;;5427231;26;20051;-80
2024/04/18 09:27:28;;;;;;;1999.90;999.90;;;;;;;;;;5428796;26;20036;-79
2024/04/18 09:29:56;;;;;;;1999.90;999.90;;;;;;;;;;5422880;26;20039;-78
2024/04/18 09:32:30;;;;;;;1999.90;999.90;;;;;;;;;;5429077;26;20019;-82
2024/04/18 09:34:59;;;;;;;1999.90;999.90;;;;;;;;;;5431603;26;20018;-80
2024/04/18 09:37:32;;;;;;;1999.90;999.90;;;;;;;;;;5424875;26;20010;-80
2024/04/18 09:40:01;;;;;;;1999.90;999.90;;;;;;;;;;5432669;26;20010;-81
2024/04/18 09:42:40;;;;;;;1999.90;999.90;;;;;;;;;;5426868;26;20087;-82
2024/04/18 09:45:14;;;;;;;1999.90;999.90;;;;;;;;;;5423962;26;20863;-82
2024/04/18 09:47:43;;;;;;;1999.90;999.90;;;;;;;;;;5428148;26;20368;-82
2024/04/18 09:50:12;;;;;;;1999.90;999.90;;;;;;;;;;5437610;26;20005;-82
2024/04/18 09:52:43;;;;;;;1999.90;999.90;;;;;;;;;;5425722;26;20050;-81
2024/04/18 09:55:13;;;;;;;1999.90;999.90;;;;;;;;;;5429546;26;20080;-83
2024/04/18 09:57:44;;;;;;;1999.90;999.90;;;;;;;;;;5427300;26;20135;-83
2024/04/18 10:00:15;;;;;;;1999.90;999.90;;;;;;;;;;5430226;26;20014;-82
2024/04/18 10:02:44;;;;;;;1999.90;999.90;;;;;;;;;;5427981;26;20341;-84
2024/04/18 10:05:12;;;;;;;1999.90;999.90;;;;;;;;;;5431429;26;20003;-83
2024/04/18 10:07:44;;;;;;;1999.90;999.90;;;;;;;;;;5426991;26;20043;-78
2024/04/18 10:10:14;;;;;;;1999.90;999.90;;;;;;;;;;5432366;26;20394;-78
2024/04/18 10:12:43;;;;;;;1999.90;999.90;;;;;;;;;;5426079;26;20011;-78
2024/04/18 10:15:11;;;;;;;1999.90;999.90;;;;;;;;;;5431632;26;20039;-79
2024/04/18 10:17:39;;;;;;;1999.90;999.90;;;;;;;;;;5427753;26;20003;-78
2024/04/18 10:20:09;;;;;;;1999.90;999.90;;;;;;;;;;5423069;26;20011;-81
2024/04/18 10:22:37;;;;;;;1999.90;999.90;;;;;;;;;;5429629;26;20000;-82
2024/04/18 10:25:20;;;;;;;1999.90;999.90;;;;;;;;;;5428179;26;20007;-79
2024/04/18 10:27:48;;;;;;;1999.90;999.90;;;;;;;;;;5424324;26;19999;-81
2024/04/18 10:30:17;;;;;;;1999.90;999.90;;;;;;;;;;5432917;26;20445;-79
2024/04/18 10:32:48;;;;;;;1999.90;999.90;;;;;;;;;;5427139;26;20793;-78
2024/04/18 10:35:17;;;;;;;1999.90;999.90;;;;;;;;;;5429167;26;20003;-78
2024/04/18 10:37:54;;;;;;;1999.90;999.90;;;;;;;;;;5429279;26;20036;-79
2024/04/18 10:40:25;;;;;;;1999.90;999.90;;;;;;;;;;5391361;26;20004;-78
2024/04/18 10:42:53;;;;;;;1999.90;999.90;;;;;;;;;;5397711;26;20035;-78
2024/04/18 10:45:22;;;;;;;1999.90;999.90;;;;;;;;;;5386852;26;20000;-78
2024/04/18 10:47:54;;;;;;;1999.90;999.90;;;;;;;;;;5394184;26;20007;-78
2024/04/18 10:50:20;;;;;;;1999.90;999.90;;;;;;;;;;5396685;26;20579;-78
2024/04/18 10:52:49;;;;;;;1999.90;999.90;;;;;;;;;;5391332;26;20004;-78
2024/04/18 10:55:18;;;;;;;1999.90;999.90;;;;;;;;;;5395477;26;20094;-78
2024/04/18 10:57:48;;;;;;;1999.90;999.90;;;;;;;;;;5396310;26;20016;-79
2024/04/18 11:00:18;;;;;;;1999.90;999.90;;;;;;;;;;5396353;26;20071;-78
2024/04/18 11:02:47;;;;;;;1999.90;999.90;;;;;;;;;;5386526;26;20012;-78
2024/04/18 11:05:15;;;;;;;1999.90;999.90;;;;;;;;;;5389383;26;20461;-79
2024/04/18 11:07:43;;;;;;;1999.90;999.90;;;;;;;;;;5389858;26;20019;-80
2024/04/18 11:10:12;;;;;;;1999.90;999.90;;;;;;;;;;5385073;26;20004;-82
2024/04/18 11:12:40;;;;;;;1999.90;999.90;;;;;;;;;;5395655;26;20016;-83
2024/04/18 11:15:11;;;;;;;1999.90;999.90;;;;;;;;;;5390727;26;20001;-81
2024/04/18 11:17:40;;;;;;;1999.90;999.90;;;;;;;;;;5390649;26;20004;-79
2024/04/18 11:20:11;;;;;;;1999.90;999.90;;;;;;;;;;5389434;26;20004;-78
2024/04/18 11:22:40;;;;;;;1999.90;999.90;;;;;;;;;;5391388;26;20003;-78
2024/04/18 11:25:09;;;;;;;1999.90;999.90;;;;;;;;;;5397170;26;20000;-79
2024/04/18 11:27:39;;;;;;;1999.90;999.90;;;;;;;;;;5399285;26;20051;-78
2024/04/18 11:30:18;;;;;;;1999.90;999.90;;;;;;;;;;5388293;26;20099;-78
2024/04/18 11:33:00;;;;;;;1999.90;999.90;;;;;;;;;;5393881;26;19999;-78
2024/04/18 11:35:29;;;;;;;1999.90;999.90;;;;;;;;;;5391194;26;20106;-78
2024/04/18 11:37:57;;;;;;;1999.90;999.90;;;;;;;;;;5386915;26;20042;-80
2024/04/18 11:40:26;;;;;;;1999.90;999.90;;;;;;;;;;5424345;26;20022;-79
2024/04/18 11:42:54;;;;;;;1999.90;999.90;;;;;;;;;;5424340;26;20039;-79
2024/04/18 11:45:25;;;;;;;1999.90;999.90;;;;;;;;;;5429345;26;20093;-79
2024/04/18 11:47:57;;;;;;;1999.90;999.90;;;;;;;;;;5426757;26;20034;-80
2024/04/18 11:50:26;;;;;;;1999.90;999.90;;;;;;;;;;5429182;26;20017;-79
2024/04/18 11:52:55;;;;;;;1999.90;999.90;;;;;;;;;;5425871;26;19999;-79
2024/04/18 11:55:21;;;;;;;1999.90;999.90;;;;;;;;;;5432658;26;20019;-79
2024/04/18 11:57:49;;;;;;;1999.90;999.90;;;;;;;;;;5427116;26;20853;-79
2024/04/18 12:00:18;;;;;;;1999.90;999.90;;;;;;;;;;5432090;26;20476;-79
2024/04/18 12:02:49;;;;;;;1999.90;999.90;;;;;;;;;;5426258;26;20480;-80
2024/04/18 12:05:17;;;;;;;1999.90;999.90;;;;;;;;;;5429842;26;20012;-79
2024/04/18 12:07:46;;;;;;;1999.90;999.90;;;;;;;;;;5421478;26;20028;-79
2024/04/18 12:10:14;;;;;;;1999.90;999.90;;;;;;;;;;5425757;26;20015;-81
2024/04/18 12:12:43;;;;;;;1999.90;999.90;;;;;;;;;;5427544;26;20000;-79
2024/04/18 12:15:11;;;;;;;1999.90;999.90;;;;;;;;;;5431889;26;20000;-82
2024/04/18 12:17:40;;;;;;;1999.90;999.90;;;;;;;;;;5427820;26;20017;-80
2024/04/18 12:20:12;;;;;;;1999.90;999.90;;;;;;;;;;5425818;26;20477;-78
2024/04/18 12:22:40;;;;;;;1999.90;999.90;;;;;;;;;;5433469;26;19999;-79
2024/04/18 12:25:06;;;;;;;1999.90;999.90;;;;;;;;;;5420139;26;20615;-79
2024/04/18 12:27:34;;;;;;;1999.90;999.90;;;;;;;;;;5423840;26;20014;-82
2024/04/18 12:30:02;;;;;;;1999.90;999.90;;;;;;;;;;5426579;26;20030;-82
2024/04/18 12:32:30;;;;;;;1999.90;999.90;;;;;;;;;;5422720;26;20011;-81
2024/04/18 12:34:58;;;;;;;1999.90;999.90;;;;;;;;;;5430145;26;20340;-83
2024/04/18 12:37:29;;;;;;;1999.90;999.90;;;;;;;;;;5421010;26;20047;-83
2024/04/18 12:39:58;;;;;;;1999.90;999.90;;;;;;;;;;5422207;26;20096;-81
2024/04/18 12:42:24;;;;;;;1999.90;999.90;;;;;;;;;;5426211;26;19998;-82
2024/04/18 12:44:52;;;;;;;1999.90;999.90;;;;;;;;;;5428701;26;20022;-82
2024/04/18 12:47:21;;;;;;;1999.90;999.90;;;;;;;;;;5422259;26;20019;-81
2024/04/18 12:49:46;;;;;;;1999.90;999.90;;;;;;;;;;5422636;26;20021;-81
2024/04/18 12:52:15;;;;;;;1999.90;999.90;;;;;;;;;;5424224;26;20011;-82
2024/04/18 12:54:46;;;;;;;1999.90;999.90;;;;;;;;;;5420186;26;19998;-82
2024/04/18 12:57:15;;;;;;;1999.90;999.90;;;;;;;;;;5421319;26;20008;-82
2024/04/18 12:59:43;;;;;;;1999.90;999.90;;;;;;;;;;5428369;26;20009;-82
2024/04/18 13:02:11;;;;;;;1999.90;999.90;;;;;;;;;;5432996;26;20004;-80
2024/04/18 13:04:40;;;;;;;1999.90;999.90;;;;;;;;;;5427158;26;20000;-81
2024/04/18 13:07:08;;;;;;;1999.90;999.90;;;;;;;;;;5428213;26;20089;-84
2024/04/18 13:09:36;;;;;;;1999.90;999.90;;;;;;;;;;5428658;26;20473;-80
2024/04/18 13:12:08;;;;;;;1999.90;999.90;;;;;;;;;;5426656;26;20129;-81
2024/04/18 13:14:36;;;;;;;1999.90;999.90;;;;;;;;;;5430843;26;20365;-80
2024/04/18 13:17:04;;;;;;;1999.90;999.90;;;;;;;;;;5429577;26;19996;-79
2024/04/18 13:19:32;;;;;;;1999.90;999.90;;;;;;;;;;5428957;26;20101;-79
2024/04/18 13:22:00;;;;;;;1999.90;999.90;;;;;;;;;;5427926;26;20027;-78
2024/04/18 13:24:29;;;;;;;1999.90;999.90;;;;;;;;;;5428939;26;20096;-77
2024/04/18 13:26:55;;;;;;;1999.90;999.90;;;;;;;;;;5429638;26;20059;-78
2024/04/18 13:29:26;;;;;;;1999.90;999.90;;;;;;;;;;5427191;26;20013;-78
2024/04/18 13:31:58;;;;;;;1999.90;999.90;;;;;;;;;;5428219;26;20006;-79
2024/04/18 13:34:27;;;;;;;1999.90;999.90;;;;;;;;;;5429313;26;20792;-79
2024/04/18 13:36:55;;;;;;;1999.90;999.90;;;;;;;;;;5434279;26;20003;-79
2024/04/18 13:39:24;;;;;;;1999.90;999.90;;;;;;;;;;5421283;26;20040;-80
2024/04/18 13:41:52;;;;;;;1999.90;999.90;;;;;;;;;;5433106;26;20007;-80
2024/04/18 13:44:20;;;;;;;1999.90;999.90;;;;;;;;;;5425784;26;20100;-81
2024/04/18 13:46:51;;;;;;;1999.90;999.90;;;;;;;;;;5431616;26;20082;-81
2024/04/18 13:49:19;;;;;;;1999.90;999.90;;;;;;;;;;5428534;26;20018;-81